sensor_id;sensor_type;location;lat;lon;timestamp;P1;durP1;ratioP1;P2;durP2;ratioP2
21430;SDS011;10876;49.038;10.608;2022-12-07T00:00:28;17.48;;;8.85;;
21430;SDS011;10876;49.038;10.608;2022-12-07T00:02:55;13.98;;;7.45;;
21430;SDS011;10876;49.038;10.608;2022-12-07T00:05:22;12.98;;;6.78;;
21430;SDS011;10876;49.038;10.608;2022-12-07T00:07:49;11.00;;;6.38;;
21430;SDS011;10876;49.038;10.608;2022-12-07T00:10:16;13.25;;;8.00;;
21430;SDS011;10876;49.038;10.608;2022-12-07T00:12:43;12.18;;;7.13;;
21430;SDS011;10876;49.038;10.608;2022-12-07T00:15:11;12.98;;;7.72;;
21430;SDS011;10876;49.038;10.608;2022-12-07T00:17:38;11.15;;;6.78;;
21430;SDS011;10876;49.038;10.608;2022-12-07T00:20:08;12.20;;;7.00;;
21430;SDS011;10876;49.038;10.608;2022-12-07T00:22:35;12.95;;;7.35;;
21430;SDS011;10876;49.038;10.608;2022-12-07T00:25:02;13.05;;;6.45;;
21430;SDS011;10876;49.038;10.608;2022-12-07T00:27:30;10.60;;;5.90;;
21430;SDS011;10876;49.038;10.608;2022-12-07T00:29:57;14.25;;;6.85;;
21430;SDS011;10876;49.038;10.608;2022-12-07T00:32:25;12.73;;;6.85;;
21430;SDS011;10876;49.038;10.608;2022-12-07T00:34:52;13.90;;;7.60;;
21430;SDS011;10876;49.038;10.608;2022-12-07T00:37:19;12.57;;;6.65;;
21430;SDS011;10876;49.038;10.608;2022-12-07T00:39:53;18.70;;;9.35;;
21430;SDS011;10876;49.038;10.608;2022-12-07T00:42:20;12.98;;;6.97;;
21430;SDS011;10876;49.038;10.608;2022-12-07T00:44:47;12.95;;;6.90;;
21430;SDS011;10876;49.038;10.608;2022-12-07T00:47:14;11.88;;;6.53;;
21430;SDS011;10876;49.038;10.608;2022-12-07T00:49:42;11.88;;;6.90;;
21430;SDS011;10876;49.038;10.608;2022-12-07T00:52:09;13.13;;;7.03;;
21430;SDS011;10876;49.038;10.608;2022-12-07T00:54:36;12.40;;;6.75;;
21430;SDS011;10876;49.038;10.608;2022-12-07T00:57:03;10.68;;;6.28;;
21430;SDS011;10876;49.038;10.608;2022-12-07T00:59:30;12.18;;;5.85;;
21430;SDS011;10876;49.038;10.608;2022-12-07T01:01:56;12.20;;;6.80;;
21430;SDS011;10876;49.038;10.608;2022-12-07T01:04:23;11.45;;;6.60;;
21430;SDS011;10876;49.038;10.608;2022-12-07T01:06:52;12.90;;;6.35;;
21430;SDS011;10876;49.038;10.608;2022-12-07T01:09:19;11.07;;;6.35;;
21430;SDS011;10876;49.038;10.608;2022-12-07T01:11:46;12.30;;;7.05;;
21430;SDS011;10876;49.038;10.608;2022-12-07T01:14:13;16.70;;;7.35;;
21430;SDS011;10876;49.038;10.608;2022-12-07T01:16:39;13.45;;;7.13;;
21430;SDS011;10876;49.038;10.608;2022-12-07T01:19:06;14.75;;;7.55;;
21430;SDS011;10876;49.038;10.608;2022-12-07T01:21:34;12.18;;;6.50;;
21430;SDS011;10876;49.038;10.608;2022-12-07T01:24:04;13.02;;;7.47;;
21430;SDS011;10876;49.038;10.608;2022-12-07T01:26:33;13.50;;;6.43;;
21430;SDS011;10876;49.038;10.608;2022-12-07T01:28:59;12.10;;;7.10;;
21430;SDS011;10876;49.038;10.608;2022-12-07T01:31:27;12.10;;;7.00;;
21430;SDS011;10876;49.038;10.608;2022-12-07T01:33:55;11.70;;;6.82;;
21430;SDS011;10876;49.038;10.608;2022-12-07T01:36:24;12.23;;;6.43;;
21430;SDS011;10876;49.038;10.608;2022-12-07T01:38:53;11.32;;;6.00;;
21430;SDS011;10876;49.038;10.608;2022-12-07T01:41:23;13.00;;;6.32;;
21430;SDS011;10876;49.038;10.608;2022-12-07T01:44:08;12.07;;;7.03;;
21430;SDS011;10876;49.038;10.608;2022-12-07T01:46:41;11.65;;;6.88;;
21430;SDS011;10876;49.038;10.608;2022-12-07T01:49:10;11.73;;;6.43;;
21430;SDS011;10876;49.038;10.608;2022-12-07T01:51:44;12.55;;;6.70;;
21430;SDS011;10876;49.038;10.608;2022-12-07T01:54:14;11.70;;;6.80;;
21430;SDS011;10876;49.038;10.608;2022-12-07T01:56:45;12.63;;;7.03;;
21430;SDS011;10876;49.038;10.608;2022-12-07T01:59:17;10.95;;;6.85;;
21430;SDS011;10876;49.038;10.608;2022-12-07T02:01:45;12.38;;;6.38;;
21430;SDS011;10876;49.038;10.608;2022-12-07T02:04:12;13.00;;;6.78;;
21430;SDS011;10876;49.038;10.608;2022-12-07T02:06:39;12.82;;;6.95;;
21430;SDS011;10876;49.038;10.608;2022-12-07T02:09:08;14.52;;;7.38;;
21430;SDS011;10876;49.038;10.608;2022-12-07T02:11:35;17.52;;;7.65;;
21430;SDS011;10876;49.038;10.608;2022-12-07T02:14:03;14.75;;;7.38;;
21430;SDS011;10876;49.038;10.608;2022-12-07T02:16:32;15.82;;;7.55;;
21430;SDS011;10876;49.038;10.608;2022-12-07T02:19:16;13.90;;;7.22;;
21430;SDS011;10876;49.038;10.608;2022-12-07T02:22:00;16.42;;;7.43;;
21430;SDS011;10876;49.038;10.608;2022-12-07T02:24:45;15.50;;;6.65;;
21430;SDS011;10876;49.038;10.608;2022-12-07T02:27:27;13.27;;;7.38;;
21430;SDS011;10876;49.038;10.608;2022-12-07T02:30:06;13.55;;;8.32;;
21430;SDS011;10876;49.038;10.608;2022-12-07T02:32:40;13.70;;;6.95;;
21430;SDS011;10876;49.038;10.608;2022-12-07T02:35:11;16.50;;;8.23;;
21430;SDS011;10876;49.038;10.608;2022-12-07T02:37:47;14.52;;;7.25;;
21430;SDS011;10876;49.038;10.608;2022-12-07T02:40:24;14.75;;;7.72;;
21430;SDS011;10876;49.038;10.608;2022-12-07T02:42:57;18.38;;;7.72;;
21430;SDS011;10876;49.038;10.608;2022-12-07T02:45:29;12.80;;;7.00;;
21430;SDS011;10876;49.038;10.608;2022-12-07T02:47:58;12.73;;;7.03;;
21430;SDS011;10876;49.038;10.608;2022-12-07T02:50:27;11.48;;;7.13;;
21430;SDS011;10876;49.038;10.608;2022-12-07T02:52:54;14.32;;;7.47;;
21430;SDS011;10876;49.038;10.608;2022-12-07T02:55:22;14.68;;;7.43;;
21430;SDS011;10876;49.038;10.608;2022-12-07T02:58:03;13.95;;;7.43;;
21430;SDS011;10876;49.038;10.608;2022-12-07T03:00:44;12.05;;;6.63;;
21430;SDS011;10876;49.038;10.608;2022-12-07T03:03:18;14.98;;;7.85;;
21430;SDS011;10876;49.038;10.608;2022-12-07T03:08:39;13.45;;;7.20;;
21430;SDS011;10876;49.038;10.608;2022-12-07T03:11:14;12.20;;;7.07;;
21430;SDS011;10876;49.038;10.608;2022-12-07T03:13:50;16.38;;;7.95;;
21430;SDS011;10876;49.038;10.608;2022-12-07T03:16:28;12.63;;;7.07;;
21430;SDS011;10876;49.038;10.608;2022-12-07T03:19:01;14.85;;;7.57;;
21430;SDS011;10876;49.038;10.608;2022-12-07T03:21:34;12.57;;;7.57;;
21430;SDS011;10876;49.038;10.608;2022-12-07T03:24:05;14.77;;;8.05;;
21430;SDS011;10876;49.038;10.608;2022-12-07T03:26:39;13.85;;;7.65;;
21430;SDS011;10876;49.038;10.608;2022-12-07T03:29:11;12.05;;;6.55;;
21430;SDS011;10876;49.038;10.608;2022-12-07T03:31:45;15.85;;;7.45;;
21430;SDS011;10876;49.038;10.608;2022-12-07T03:34:20;12.80;;;7.20;;
21430;SDS011;10876;49.038;10.608;2022-12-07T03:37:02;14.32;;;7.53;;
21430;SDS011;10876;49.038;10.608;2022-12-07T03:39:43;14.85;;;7.05;;
21430;SDS011;10876;49.038;10.608;2022-12-07T03:42:15;14.77;;;7.30;;
21430;SDS011;10876;49.038;10.608;2022-12-07T03:44:42;14.20;;;7.47;;
21430;SDS011;10876;49.038;10.608;2022-12-07T03:47:12;14.80;;;6.93;;
21430;SDS011;10876;49.038;10.608;2022-12-07T03:49:48;11.63;;;6.93;;
21430;SDS011;10876;49.038;10.608;2022-12-07T03:52:20;13.45;;;6.88;;
21430;SDS011;10876;49.038;10.608;2022-12-07T03:54:52;16.00;;;7.53;;
21430;SDS011;10876;49.038;10.608;2022-12-07T03:57:25;16.73;;;8.38;;
21430;SDS011;10876;49.038;10.608;2022-12-07T03:59:54;16.13;;;8.25;;
21430;SDS011;10876;49.038;10.608;2022-12-07T04:02:25;14.57;;;7.35;;
21430;SDS011;10876;49.038;10.608;2022-12-07T04:04:54;14.40;;;7.90;;
21430;SDS011;10876;49.038;10.608;2022-12-07T04:07:21;14.98;;;7.70;;
21430;SDS011;10876;49.038;10.608;2022-12-07T04:09:50;18.15;;;8.40;;
21430;SDS011;10876;49.038;10.608;2022-12-07T04:12:19;17.92;;;8.40;;
21430;SDS011;10876;49.038;10.608;2022-12-07T04:14:46;17.40;;;7.82;;
21430;SDS011;10876;49.038;10.608;2022-12-07T04:17:13;16.30;;;7.43;;
21430;SDS011;10876;49.038;10.608;2022-12-07T04:19:42;15.95;;;8.20;;
21430;SDS011;10876;49.038;10.608;2022-12-07T04:22:09;13.88;;;7.78;;
21430;SDS011;10876;49.038;10.608;2022-12-07T04:24:35;14.80;;;7.65;;
21430;SDS011;10876;49.038;10.608;2022-12-07T04:27:02;13.65;;;7.28;;
21430;SDS011;10876;49.038;10.608;2022-12-07T04:29:29;14.15;;;6.22;;
21430;SDS011;10876;49.038;10.608;2022-12-07T04:31:56;15.70;;;7.53;;
21430;SDS011;10876;49.038;10.608;2022-12-07T04:34:23;15.25;;;7.22;;
21430;SDS011;10876;49.038;10.608;2022-12-07T04:36:51;15.35;;;7.07;;
21430;SDS011;10876;49.038;10.608;2022-12-07T04:39:20;18.55;;;7.68;;
21430;SDS011;10876;49.038;10.608;2022-12-07T04:41:48;17.50;;;8.15;;
21430;SDS011;10876;49.038;10.608;2022-12-07T04:44:15;16.58;;;7.28;;
21430;SDS011;10876;49.038;10.608;2022-12-07T04:46:43;16.35;;;7.68;;
21430;SDS011;10876;49.038;10.608;2022-12-07T04:49:10;16.35;;;7.60;;
21430;SDS011;10876;49.038;10.608;2022-12-07T04:51:37;16.02;;;8.90;;
21430;SDS011;10876;49.038;10.608;2022-12-07T04:54:06;14.35;;;7.10;;
21430;SDS011;10876;49.038;10.608;2022-12-07T04:56:33;15.95;;;7.43;;
21430;SDS011;10876;49.038;10.608;2022-12-07T04:59:00;17.70;;;8.48;;
21430;SDS011;10876;49.038;10.608;2022-12-07T05:01:28;17.85;;;8.70;;
21430;SDS011;10876;49.038;10.608;2022-12-07T05:03:55;18.58;;;8.55;;
21430;SDS011;10876;49.038;10.608;2022-12-07T05:06:22;16.13;;;7.97;;
21430;SDS011;10876;49.038;10.608;2022-12-07T05:08:49;19.27;;;9.20;;
21430;SDS011;10876;49.038;10.608;2022-12-07T05:11:17;19.92;;;9.23;;
21430;SDS011;10876;49.038;10.608;2022-12-07T05:13:58;20.52;;;9.32;;
21430;SDS011;10876;49.038;10.608;2022-12-07T05:16:25;17.23;;;8.68;;
21430;SDS011;10876;49.038;10.608;2022-12-07T05:18:52;21.80;;;9.48;;
21430;SDS011;10876;49.038;10.608;2022-12-07T05:21:19;17.80;;;8.77;;
21430;SDS011;10876;49.038;10.608;2022-12-07T05:23:46;17.98;;;8.90;;
21430;SDS011;10876;49.038;10.608;2022-12-07T05:26:13;16.58;;;8.60;;
21430;SDS011;10876;49.038;10.608;2022-12-07T05:28:41;16.73;;;8.00;;
21430;SDS011;10876;49.038;10.608;2022-12-07T05:31:08;19.05;;;9.65;;
21430;SDS011;10876;49.038;10.608;2022-12-07T05:33:35;20.85;;;8.57;;
21430;SDS011;10876;49.038;10.608;2022-12-07T05:36:02;18.15;;;8.75;;
21430;SDS011;10876;49.038;10.608;2022-12-07T05:38:30;17.38;;;9.15;;
21430;SDS011;10876;49.038;10.608;2022-12-07T05:40:59;20.10;;;9.32;;
21430;SDS011;10876;49.038;10.608;2022-12-07T05:43:28;20.20;;;9.32;;
21430;SDS011;10876;49.038;10.608;2022-12-07T05:45:56;20.98;;;9.43;;
21430;SDS011;10876;49.038;10.608;2022-12-07T05:48:23;20.20;;;8.75;;
21430;SDS011;10876;49.038;10.608;2022-12-07T05:50:51;21.08;;;9.73;;
21430;SDS011;10876;49.038;10.608;2022-12-07T05:53:18;18.75;;;8.32;;
21430;SDS011;10876;49.038;10.608;2022-12-07T05:55:45;19.15;;;8.90;;
21430;SDS011;10876;49.038;10.608;2022-12-07T05:58:12;20.90;;;9.93;;
21430;SDS011;10876;49.038;10.608;2022-12-07T06:00:57;18.00;;;8.95;;
21430;SDS011;10876;49.038;10.608;2022-12-07T06:03:24;16.58;;;8.00;;
21430;SDS011;10876;49.038;10.608;2022-12-07T06:05:51;19.42;;;9.07;;
21430;SDS011;10876;49.038;10.608;2022-12-07T06:08:18;19.80;;;9.00;;
21430;SDS011;10876;49.038;10.608;2022-12-07T06:10:46;17.38;;;8.85;;
21430;SDS011;10876;49.038;10.608;2022-12-07T06:13:35;21.23;;;9.32;;
21430;SDS011;10876;49.038;10.608;2022-12-07T06:16:02;18.10;;;9.18;;
21430;SDS011;10876;49.038;10.608;2022-12-07T06:18:29;17.85;;;9.07;;
21430;SDS011;10876;49.038;10.608;2022-12-07T06:20:56;21.75;;;9.95;;
21430;SDS011;10876;49.038;10.608;2022-12-07T06:23:22;22.50;;;10.18;;
21430;SDS011;10876;49.038;10.608;2022-12-07T06:25:49;23.60;;;10.70;;
21430;SDS011;10876;49.038;10.608;2022-12-07T06:28:16;23.05;;;9.88;;
21430;SDS011;10876;49.038;10.608;2022-12-07T06:30:43;24.80;;;10.65;;
21430;SDS011;10876;49.038;10.608;2022-12-07T06:33:11;23.35;;;10.05;;
21430;SDS011;10876;49.038;10.608;2022-12-07T06:35:38;20.85;;;9.50;;
21430;SDS011;10876;49.038;10.608;2022-12-07T06:38:05;20.60;;;9.60;;
21430;SDS011;10876;49.038;10.608;2022-12-07T06:40:32;19.83;;;9.00;;
21430;SDS011;10876;49.038;10.608;2022-12-07T06:42:59;23.58;;;10.00;;
21430;SDS011;10876;49.038;10.608;2022-12-07T06:45:26;21.15;;;9.52;;
21430;SDS011;10876;49.038;10.608;2022-12-07T06:47:53;20.17;;;9.40;;
21430;SDS011;10876;49.038;10.608;2022-12-07T06:50:21;16.80;;;8.68;;
21430;SDS011;10876;49.038;10.608;2022-12-07T06:52:48;23.17;;;10.73;;
21430;SDS011;10876;49.038;10.608;2022-12-07T06:55:16;21.25;;;10.15;;
21430;SDS011;10876;49.038;10.608;2022-12-07T06:57:43;19.95;;;9.63;;
21430;SDS011;10876;49.038;10.608;2022-12-07T07:00:11;20.50;;;9.65;;
21430;SDS011;10876;49.038;10.608;2022-12-07T07:02:39;21.35;;;9.73;;
21430;SDS011;10876;49.038;10.608;2022-12-07T07:05:06;27.25;;;11.45;;
21430;SDS011;10876;49.038;10.608;2022-12-07T07:07:35;23.90;;;10.00;;
21430;SDS011;10876;49.038;10.608;2022-12-07T07:10:02;23.70;;;10.30;;
21430;SDS011;10876;49.038;10.608;2022-12-07T07:12:29;26.55;;;11.25;;
21430;SDS011;10876;49.038;10.608;2022-12-07T07:14:56;24.55;;;9.90;;
21430;SDS011;10876;49.038;10.608;2022-12-07T07:17:23;22.92;;;9.65;;
21430;SDS011;10876;49.038;10.608;2022-12-07T07:19:50;17.98;;;9.18;;
21430;SDS011;10876;49.038;10.608;2022-12-07T07:22:17;23.13;;;10.25;;
21430;SDS011;10876;49.038;10.608;2022-12-07T07:24:45;34.20;;;10.60;;
21430;SDS011;10876;49.038;10.608;2022-12-07T07:27:12;23.75;;;9.95;;
21430;SDS011;10876;49.038;10.608;2022-12-07T07:29:39;22.45;;;9.73;;
21430;SDS011;10876;49.038;10.608;2022-12-07T07:32:06;23.42;;;10.55;;
21430;SDS011;10876;49.038;10.608;2022-12-07T07:34:33;22.30;;;10.07;;
21430;SDS011;10876;49.038;10.608;2022-12-07T07:37:00;21.50;;;9.40;;
21430;SDS011;10876;49.038;10.608;2022-12-07T07:39:27;22.25;;;9.85;;
21430;SDS011;10876;49.038;10.608;2022-12-07T07:41:56;20.27;;;9.70;;
21430;SDS011;10876;49.038;10.608;2022-12-07T07:44:23;19.90;;;8.95;;
21430;SDS011;10876;49.038;10.608;2022-12-07T07:46:50;21.83;;;10.77;;
21430;SDS011;10876;49.038;10.608;2022-12-07T07:49:16;19.70;;;9.25;;
21430;SDS011;10876;49.038;10.608;2022-12-07T07:51:43;18.45;;;9.20;;
21430;SDS011;10876;49.038;10.608;2022-12-07T07:54:10;23.02;;;9.98;;
21430;SDS011;10876;49.038;10.608;2022-12-07T07:56:37;24.42;;;9.85;;
21430;SDS011;10876;49.038;10.608;2022-12-07T07:59:06;26.92;;;10.65;;
21430;SDS011;10876;49.038;10.608;2022-12-07T08:01:33;20.35;;;9.25;;
21430;SDS011;10876;49.038;10.608;2022-12-07T08:04:00;19.02;;;9.27;;
21430;SDS011;10876;49.038;10.608;2022-12-07T08:06:27;19.35;;;10.07;;
21430;SDS011;10876;49.038;10.608;2022-12-07T08:08:54;20.85;;;9.57;;
21430;SDS011;10876;49.038;10.608;2022-12-07T08:11:23;21.90;;;9.82;;
21430;SDS011;10876;49.038;10.608;2022-12-07T08:13:50;20.55;;;9.48;;
21430;SDS011;10876;49.038;10.608;2022-12-07T08:16:18;21.25;;;10.07;;
21430;SDS011;10876;49.038;10.608;2022-12-07T08:18:45;20.58;;;8.93;;
21430;SDS011;10876;49.038;10.608;2022-12-07T08:21:13;18.50;;;9.05;;
21430;SDS011;10876;49.038;10.608;2022-12-07T08:23:41;18.10;;;9.05;;
21430;SDS011;10876;49.038;10.608;2022-12-07T08:26:09;21.45;;;9.18;;
21430;SDS011;10876;49.038;10.608;2022-12-07T08:28:38;16.35;;;8.05;;
21430;SDS011;10876;49.038;10.608;2022-12-07T08:31:06;21.95;;;8.45;;
21430;SDS011;10876;49.038;10.608;2022-12-07T08:33:35;16.95;;;8.57;;
21430;SDS011;10876;49.038;10.608;2022-12-07T08:36:03;20.85;;;9.27;;
21430;SDS011;10876;49.038;10.608;2022-12-07T08:38:31;14.65;;;7.68;;
21430;SDS011;10876;49.038;10.608;2022-12-07T08:40:58;15.05;;;7.25;;
21430;SDS011;10876;49.038;10.608;2022-12-07T08:43:25;16.83;;;8.57;;
21430;SDS011;10876;49.038;10.608;2022-12-07T08:45:53;17.10;;;7.63;;
21430;SDS011;10876;49.038;10.608;2022-12-07T08:48:30;15.77;;;8.00;;
21430;SDS011;10876;49.038;10.608;2022-12-07T08:50:59;13.77;;;7.28;;
21430;SDS011;10876;49.038;10.608;2022-12-07T08:53:28;15.27;;;7.93;;
21430;SDS011;10876;49.038;10.608;2022-12-07T08:55:55;14.55;;;7.32;;
21430;SDS011;10876;49.038;10.608;2022-12-07T08:58:24;14.05;;;6.93;;
21430;SDS011;10876;49.038;10.608;2022-12-07T09:00:51;14.40;;;7.28;;
21430;SDS011;10876;49.038;10.608;2022-12-07T09:03:18;15.70;;;8.43;;
21430;SDS011;10876;49.038;10.608;2022-12-07T09:05:45;16.83;;;8.07;;
21430;SDS011;10876;49.038;10.608;2022-12-07T09:08:13;15.85;;;7.25;;
21430;SDS011;10876;49.038;10.608;2022-12-07T09:10:40;16.27;;;7.95;;
21430;SDS011;10876;49.038;10.608;2022-12-07T09:13:07;15.88;;;8.80;;
21430;SDS011;10876;49.038;10.608;2022-12-07T09:15:34;15.98;;;7.22;;
21430;SDS011;10876;49.038;10.608;2022-12-07T09:18:01;12.73;;;7.03;;
21430;SDS011;10876;49.038;10.608;2022-12-07T09:20:28;13.23;;;6.38;;
21430;SDS011;10876;49.038;10.608;2022-12-07T09:22:55;15.02;;;7.05;;
21430;SDS011;10876;49.038;10.608;2022-12-07T09:25:23;13.40;;;6.55;;
21430;SDS011;10876;49.038;10.608;2022-12-07T09:27:55;16.40;;;7.38;;
21430;SDS011;10876;49.038;10.608;2022-12-07T09:30:23;11.75;;;7.35;;
21430;SDS011;10876;49.038;10.608;2022-12-07T09:32:52;16.10;;;7.07;;
21430;SDS011;10876;49.038;10.608;2022-12-07T09:35:19;13.32;;;7.07;;
21430;SDS011;10876;49.038;10.608;2022-12-07T09:37:46;14.57;;;7.55;;
21430;SDS011;10876;49.038;10.608;2022-12-07T09:40:13;13.80;;;6.78;;
21430;SDS011;10876;49.038;10.608;2022-12-07T09:42:44;17.25;;;9.13;;
21430;SDS011;10876;49.038;10.608;2022-12-07T09:45:16;15.75;;;8.02;;
21430;SDS011;10876;49.038;10.608;2022-12-07T09:47:45;34.60;;;14.13;;
21430;SDS011;10876;49.038;10.608;2022-12-07T09:50:13;12.98;;;7.25;;
21430;SDS011;10876;49.038;10.608;2022-12-07T09:52:43;12.80;;;7.78;;
21430;SDS011;10876;49.038;10.608;2022-12-07T09:55:13;13.55;;;7.53;;
21430;SDS011;10876;49.038;10.608;2022-12-07T09:57:43;14.95;;;7.63;;
21430;SDS011;10876;49.038;10.608;2022-12-07T10:00:12;13.48;;;7.65;;
21430;SDS011;10876;49.038;10.608;2022-12-07T10:02:41;12.52;;;7.53;;
21430;SDS011;10876;49.038;10.608;2022-12-07T10:05:12;16.42;;;7.40;;
21430;SDS011;10876;49.038;10.608;2022-12-07T10:07:41;16.52;;;7.20;;
21430;SDS011;10876;49.038;10.608;2022-12-07T10:10:13;15.70;;;7.72;;
21430;SDS011;10876;49.038;10.608;2022-12-07T10:12:59;14.23;;;7.22;;
21430;SDS011;10876;49.038;10.608;2022-12-07T10:15:44;13.38;;;6.78;;
21430;SDS011;10876;49.038;10.608;2022-12-07T10:18:21;12.98;;;6.72;;
21430;SDS011;10876;49.038;10.608;2022-12-07T10:21:00;12.57;;;6.35;;
21430;SDS011;10876;49.038;10.608;2022-12-07T10:23:36;13.75;;;7.05;;
21430;SDS011;10876;49.038;10.608;2022-12-07T10:29:12;10.98;;;5.57;;
21430;SDS011;10876;49.038;10.608;2022-12-07T10:31:42;9.90;;;6.10;;
21430;SDS011;10876;49.038;10.608;2022-12-07T10:34:15;14.57;;;6.95;;
21430;SDS011;10876;49.038;10.608;2022-12-07T10:36:49;12.57;;;6.63;;
21430;SDS011;10876;49.038;10.608;2022-12-07T10:39:17;13.32;;;6.72;;
21430;SDS011;10876;49.038;10.608;2022-12-07T10:41:54;11.43;;;6.22;;
21430;SDS011;10876;49.038;10.608;2022-12-07T10:44:25;11.85;;;6.38;;
21430;SDS011;10876;49.038;10.608;2022-12-07T10:46:59;14.85;;;7.45;;
21430;SDS011;10876;49.038;10.608;2022-12-07T10:49:55;9.88;;;5.57;;
21430;SDS011;10876;49.038;10.608;2022-12-07T10:55:56;14.48;;;7.00;;
21430;SDS011;10876;49.038;10.608;2022-12-07T10:58:42;13.30;;;6.40;;
21430;SDS011;10876;49.038;10.608;2022-12-07T11:01:23;12.27;;;5.97;;
21430;SDS011;10876;49.038;10.608;2022-12-07T11:04:18;12.77;;;6.57;;
21430;SDS011;10876;49.038;10.608;2022-12-07T11:06:54;10.32;;;5.72;;
21430;SDS011;10876;49.038;10.608;2022-12-07T11:09:40;10.00;;;5.50;;
21430;SDS011;10876;49.038;10.608;2022-12-07T11:12:25;14.43;;;6.18;;
21430;SDS011;10876;49.038;10.608;2022-12-07T11:15:07;10.07;;;5.50;;
21430;SDS011;10876;49.038;10.608;2022-12-07T11:17:48;10.52;;;5.22;;
21430;SDS011;10876;49.038;10.608;2022-12-07T11:23:15;9.05;;;5.47;;
21430;SDS011;10876;49.038;10.608;2022-12-07T11:25:49;13.10;;;6.10;;
21430;SDS011;10876;49.038;10.608;2022-12-07T11:28:28;10.35;;;6.03;;
21430;SDS011;10876;49.038;10.608;2022-12-07T11:31:08;10.40;;;5.88;;
21430;SDS011;10876;49.038;10.608;2022-12-07T11:33:47;12.35;;;6.35;;
21430;SDS011;10876;49.038;10.608;2022-12-07T11:36:24;13.73;;;6.72;;
21430;SDS011;10876;49.038;10.608;2022-12-07T11:39:00;14.98;;;7.15;;
21430;SDS011;10876;49.038;10.608;2022-12-07T11:41:31;13.13;;;6.97;;
21430;SDS011;10876;49.038;10.608;2022-12-07T11:44:04;14.48;;;6.60;;
21430;SDS011;10876;49.038;10.608;2022-12-07T11:46:38;9.88;;;5.97;;
21430;SDS011;10876;49.038;10.608;2022-12-07T11:49:15;10.00;;;5.25;;
21430;SDS011;10876;49.038;10.608;2022-12-07T11:51:48;11.20;;;6.15;;
21430;SDS011;10876;49.038;10.608;2022-12-07T11:54:21;13.02;;;7.03;;
21430;SDS011;10876;49.038;10.608;2022-12-07T11:56:51;11.45;;;5.97;;
21430;SDS011;10876;49.038;10.608;2022-12-07T11:59:23;13.07;;;6.32;;
21430;SDS011;10876;49.038;10.608;2022-12-07T12:02:00;13.18;;;7.28;;
21430;SDS011;10876;49.038;10.608;2022-12-07T12:04:43;12.90;;;7.07;;
21430;SDS011;10876;49.038;10.608;2022-12-07T12:07:21;13.52;;;6.78;;
21430;SDS011;10876;49.038;10.608;2022-12-07T12:09:51;14.80;;;6.57;;
21430;SDS011;10876;49.038;10.608;2022-12-07T12:15:20;17.05;;;7.00;;
21430;SDS011;10876;49.038;10.608;2022-12-07T12:17:59;12.25;;;6.95;;
21430;SDS011;10876;49.038;10.608;2022-12-07T12:20:42;12.05;;;6.72;;
21430;SDS011;10876;49.038;10.608;2022-12-07T12:23:14;12.45;;;6.57;;
21430;SDS011;10876;49.038;10.608;2022-12-07T12:25:45;14.15;;;6.22;;
21430;SDS011;10876;49.038;10.608;2022-12-07T12:28:24;10.75;;;6.28;;
21430;SDS011;10876;49.038;10.608;2022-12-07T12:31:06;12.57;;;6.35;;
21430;SDS011;10876;49.038;10.608;2022-12-07T12:33:35;10.57;;;5.03;;
21430;SDS011;10876;49.038;10.608;2022-12-07T12:36:18;10.00;;;5.68;;
21430;SDS011;10876;49.038;10.608;2022-12-07T12:38:49;11.80;;;5.13;;
21430;SDS011;10876;49.038;10.608;2022-12-07T12:50:26;11.50;;;5.32;;
21430;SDS011;10876;49.038;10.608;2022-12-07T12:53:11;9.23;;;5.45;;
21430;SDS011;10876;49.038;10.608;2022-12-07T12:58:47;7.88;;;4.63;;
21430;SDS011;10876;49.038;10.608;2022-12-07T13:10:28;14.75;;;6.85;;
21430;SDS011;10876;49.038;10.608;2022-12-07T13:13:03;15.15;;;7.65;;
21430;SDS011;10876;49.038;10.608;2022-12-07T13:15:51;12.20;;;6.47;;
21430;SDS011;10876;49.038;10.608;2022-12-07T13:18:23;12.50;;;6.97;;
21430;SDS011;10876;49.038;10.608;2022-12-07T13:20:52;11.93;;;6.65;;
21430;SDS011;10876;49.038;10.608;2022-12-07T13:23:22;13.20;;;7.38;;
21430;SDS011;10876;49.038;10.608;2022-12-07T13:25:58;13.30;;;6.32;;
21430;SDS011;10876;49.038;10.608;2022-12-07T13:28:40;15.93;;;7.47;;
21430;SDS011;10876;49.038;10.608;2022-12-07T13:33:58;13.70;;;7.40;;
21430;SDS011;10876;49.038;10.608;2022-12-07T13:36:26;10.90;;;6.40;;
21430;SDS011;10876;49.038;10.608;2022-12-07T13:38:57;13.10;;;7.18;;
21430;SDS011;10876;49.038;10.608;2022-12-07T13:41:27;13.38;;;6.25;;
21430;SDS011;10876;49.038;10.608;2022-12-07T13:44:01;12.13;;;6.68;;
21430;SDS011;10876;49.038;10.608;2022-12-07T13:46:41;16.67;;;7.75;;
21430;SDS011;10876;49.038;10.608;2022-12-07T13:49:17;11.13;;;5.63;;
21430;SDS011;10876;49.038;10.608;2022-12-07T13:51:46;12.07;;;6.15;;
21430;SDS011;10876;49.038;10.608;2022-12-07T13:54:19;9.88;;;6.40;;
21430;SDS011;10876;49.038;10.608;2022-12-07T13:56:51;11.90;;;7.00;;
21430;SDS011;10876;49.038;10.608;2022-12-07T13:59:19;10.70;;;5.97;;
21430;SDS011;10876;49.038;10.608;2022-12-07T14:01:49;10.70;;;6.90;;
21430;SDS011;10876;49.038;10.608;2022-12-07T14:04:31;10.63;;;6.15;;
21430;SDS011;10876;49.038;10.608;2022-12-07T14:07:00;10.30;;;5.68;;
21430;SDS011;10876;49.038;10.608;2022-12-07T14:09:28;10.43;;;5.78;;
21430;SDS011;10876;49.038;10.608;2022-12-07T14:11:57;11.25;;;6.40;;
21430;SDS011;10876;49.038;10.608;2022-12-07T14:14:25;13.07;;;5.90;;
21430;SDS011;10876;49.038;10.608;2022-12-07T14:16:56;11.52;;;6.85;;
21430;SDS011;10876;49.038;10.608;2022-12-07T14:19:40;12.95;;;7.30;;
21430;SDS011;10876;49.038;10.608;2022-12-07T14:22:15;11.60;;;6.30;;
21430;SDS011;10876;49.038;10.608;2022-12-07T14:24:47;13.60;;;6.82;;
21430;SDS011;10876;49.038;10.608;2022-12-07T14:27:18;15.35;;;7.45;;
21430;SDS011;10876;49.038;10.608;2022-12-07T14:29:47;13.35;;;7.70;;
21430;SDS011;10876;49.038;10.608;2022-12-07T14:32:18;24.05;;;10.35;;
21430;SDS011;10876;49.038;10.608;2022-12-07T14:34:54;16.40;;;8.52;;
21430;SDS011;10876;49.038;10.608;2022-12-07T14:37:22;16.98;;;9.15;;
21430;SDS011;10876;49.038;10.608;2022-12-07T14:39:49;13.75;;;7.13;;
21430;SDS011;10876;49.038;10.608;2022-12-07T14:42:16;14.32;;;7.45;;
21430;SDS011;10876;49.038;10.608;2022-12-07T14:44:45;13.80;;;8.05;;
21430;SDS011;10876;49.038;10.608;2022-12-07T14:47:12;15.10;;;8.23;;
21430;SDS011;10876;49.038;10.608;2022-12-07T14:49:39;20.00;;;10.90;;
21430;SDS011;10876;49.038;10.608;2022-12-07T14:52:08;17.48;;;9.07;;
21430;SDS011;10876;49.038;10.608;2022-12-07T14:54:39;15.35;;;8.38;;
21430;SDS011;10876;49.038;10.608;2022-12-07T14:57:08;16.48;;;9.02;;
21430;SDS011;10876;49.038;10.608;2022-12-07T14:59:36;15.73;;;9.70;;
21430;SDS011;10876;49.038;10.608;2022-12-07T15:02:04;15.57;;;8.45;;
21430;SDS011;10876;49.038;10.608;2022-12-07T15:04:31;21.23;;;11.35;;
21430;SDS011;10876;49.038;10.608;2022-12-07T15:06:58;20.50;;;10.27;;
21430;SDS011;10876;49.038;10.608;2022-12-07T15:09:26;15.63;;;8.40;;
21430;SDS011;10876;49.038;10.608;2022-12-07T15:11:53;20.25;;;10.27;;
21430;SDS011;10876;49.038;10.608;2022-12-07T15:14:20;18.13;;;9.70;;
21430;SDS011;10876;49.038;10.608;2022-12-07T15:16:48;26.50;;;12.75;;
21430;SDS011;10876;49.038;10.608;2022-12-07T15:19:16;32.05;;;17.90;;